Time;durP1;ratioP1;P1;durP2;ratioP2;P2;SDS_P1;SDS_P2;PMS_P1;PMS_P2;Temp;Humidity;BMP_temperature;BMP_pressure;BME280_temperature;BME280_humidity;BME280_pressure;Samples;Min_cycle;Max_cycle;Signal;HPM_P1;HPM_P2
2023/01/31 05:05:16;;;;;;;61.50;27.50;;;;;;;-0.36;100.00;99787.44;108036;1278;548013;-68
2023/01/31 05:07:43;;;;;;;71.60;30.70;;;;;;;2.66;100.00;99771.77;108277;1283;21995;-69
2023/01/31 05:10:09;;;;;;;63.20;30.00;;;;;;;3.13;98.87;99765.64;108240;1284;22155;-68
2023/01/31 05:12:35;;;;;;;63.00;31.70;;;;;;;3.38;96.03;99765.14;107364;1280;1002434;-75
2023/01/31 05:15:01;;;;;;;60.10;29.70;;;;;;;3.56;93.86;99764.56;108075;1284;22028;-75
2023/01/31 05:17:29;;;;;;;59.90;28.90;;;;;;;3.73;92.64;99769.52;107917;1282;392279;-75
2023/01/31 05:19:56;;;;;;;55.70;27.30;;;;;;;3.91;91.58;99771.17;108385;1282;23692;-69
2023/01/31 05:22:21;;;;;;;55.60;25.80;;;;;;;4.01;90.59;99776.60;108366;1282;21986;-73
2023/01/31 05:24:48;;;;;;;44.60;24.10;;;;;;;4.02;90.77;99778.00;108399;1282;22037;-69
2023/01/31 05:27:14;;;;;;;45.80;24.80;;;;;;;4.07;89.70;99774.55;108500;1282;22735;-69
2023/01/31 05:29:39;;;;;;;37.70;20.50;;;;;;;4.13;88.99;99776.66;108417;1282;21985;-67
2023/01/31 05:32:05;;;;;;;40.70;20.20;;;;;;;4.30;87.74;99780.20;108379;1282;23701;-68
2023/01/31 05:34:32;;;;;;;35.40;19.10;;;;;;;4.41;86.77;99779.55;108371;1282;21973;-72
2023/01/31 05:36:58;;;;;;;34.60;18.10;;;;;;;4.48;86.45;99780.43;108340;1270;21981;-72
2023/01/31 05:39:25;;;;;;;30.50;17.10;;;;;;;4.55;85.96;99786.89;108383;1283;21973;-72
2023/01/31 05:41:51;;;;;;;36.90;19.80;;;;;;;4.60;85.22;99785.17;108388;1283;21988;-68
2023/01/31 05:44:18;;;;;;;35.30;20.20;;;;;;;4.62;84.59;99787.09;108322;1283;22054;-69
2023/01/31 05:46:44;;;;;;;36.90;20.20;;;;;;;4.66;84.99;99787.45;108350;1283;21977;-71
2023/01/31 05:49:10;;;;;;;41.20;20.60;;;;;;;4.70;84.58;99787.44;108359;1279;21984;-71
2023/01/31 05:51:36;;;;;;;34.00;19.40;;;;;;;4.69;84.03;99790.73;108382;1282;21982;-68
2023/01/31 05:54:02;;;;;;;37.00;19.30;;;;;;;4.71;84.22;99791.61;108335;1282;22042;-68
2023/01/31 05:56:29;;;;;;;36.20;19.70;;;;;;;4.74;84.04;99791.11;108333;1282;21989;-72
2023/01/31 05:58:54;;;;;;;35.90;19.30;;;;;;;4.79;83.57;99794.41;108320;1282;21984;-66
2023/01/31 06:01:21;;;;;;;33.50;18.20;;;;;;;4.76;83.02;99797.36;108331;1282;21989;-70
2023/01/31 06:03:47;;;;;;;33.30;19.10;;;;;;;4.72;82.41;99798.23;108401;1282;21992;-66
2023/01/31 06:06:13;;;;;;;31.30;18.40;;;;;;;4.69;82.04;99800.30;108335;1282;23068;-67
2023/01/31 06:08:40;;;;;;;34.20;20.00;;;;;;;4.71;82.60;99796.83;108332;1276;23309;-70
2023/01/31 06:11:07;;;;;;;37.10;21.50;;;;;;;4.76;82.72;99799.63;108337;1277;21985;-66
2023/01/31 06:13:33;;;;;;;34.70;19.50;;;;;;;4.78;82.02;99799.46;108345;1282;23656;-66
2023/01/31 06:15:59;;;;;;;41.30;21.90;;;;;;;4.79;81.66;99801.38;107494;1282;1002372;-71
2023/01/31 06:18:25;;;;;;;35.30;20.60;;;;;;;4.82;81.84;99801.20;108233;1282;22016;-70
2023/01/31 06:20:52;;;;;;;44.40;21.20;;;;;;;4.85;81.58;99799.48;108238;1279;22184;-70
2023/01/31 06:23:18;;;;;;;36.00;19.90;;;;;;;4.89;81.60;99797.05;108277;1277;21989;-71
2023/01/31 06:25:48;;;;;;;37.40;20.60;;;;;;;4.93;82.01;99796.70;108271;1271;22099;-68
2023/01/31 06:28:14;;;;;;;37.90;20.10;;;;;;;4.93;81.13;99797.22;108241;1282;21983;-67
2023/01/31 06:30:40;;;;;;;37.20;20.60;;;;;;;4.93;80.77;99796.70;107583;1282;1002601;-67
2023/01/31 06:33:06;;;;;;;39.40;20.50;;;;;;;4.90;80.64;99799.47;108175;1282;21986;-66
2023/01/31 06:35:32;;;;;;;40.20;20.50;;;;;;;4.89;80.79;99800.68;108441;1282;21991;-66
2023/01/31 06:37:58;;;;;;;39.10;21.10;;;;;;;4.94;80.99;99798.95;108200;1282;22563;-66
2023/01/31 06:40:24;;;;;;;40.80;22.20;;;;;;;4.98;81.08;99798.63;108396;1282;22043;-66
2023/01/31 06:42:49;;;;;;;38.20;21.30;;;;;;;4.99;80.38;99794.45;108393;1282;23732;-66
2023/01/31 06:45:15;;;;;;;39.40;21.00;;;;;;;4.99;80.07;99794.10;108359;1282;22949;-66
2023/01/31 06:47:43;;;;;;;40.00;22.00;;;;;;;5.01;80.39;99798.80;108370;1282;22102;-67
2023/01/31 06:50:11;;;;;;;38.70;21.90;;;;;;;5.04;80.15;99798.63;108391;1282;23893;-67
2023/01/31 06:52:39;;;;;;;39.40;21.90;;;;;;;5.02;79.56;99802.98;108389;1282;23609;-67
2023/01/31 06:55:06;;;;;;;37.80;20.70;;;;;;;5.00;79.74;99808.02;108403;1282;22460;-68
2023/01/31 06:57:32;;;;;;;38.80;20.90;;;;;;;4.99;79.42;99811.33;108410;1282;22026;-66
2023/01/31 06:59:58;;;;;;;36.50;21.20;;;;;;;4.97;78.82;99813.23;108186;1283;23608;-67
2023/01/31 07:02:24;;;;;;;39.40;21.40;;;;;;;4.94;78.66;99815.30;108193;1283;21983;-66
2023/01/31 07:04:50;;;;;;;34.10;20.50;;;;;;;4.92;78.82;99822.25;107447;1283;1002356;-67
2023/01/31 07:07:17;;;;;;;43.70;22.80;;;;;;;4.90;78.45;99824.52;108191;1283;22449;-68
2023/01/31 07:09:42;;;;;;;41.40;21.30;;;;;;;4.84;77.90;99827.98;108211;1283;22046;-68
2023/01/31 07:12:08;;;;;;;43.90;23.00;;;;;;;4.77;77.92;99830.75;108205;1283;24079;-68
2023/01/31 07:14:34;;;;;;;46.50;24.10;;;;;;;4.72;77.64;99832.81;108213;1283;21991;-69
2023/01/31 07:16:59;;;;;;;54.20;27.40;;;;;;;4.67;77.52;99836.09;108217;1282;21982;-67
2023/01/31 07:19:28;;;;;;;70.30;34.40;;;;;;;4.62;77.33;99839.21;108314;1282;21979;-68
2023/01/31 07:21:54;;;;;;;51.90;25.90;;;;;;;4.62;77.57;99838.34;108286;1282;22100;-69
2023/01/31 07:24:20;;;;;;;45.40;24.60;;;;;;;4.62;77.51;99839.74;108325;1280;23729;-68
2023/01/31 07:26:47;;;;;;;46.30;24.90;;;;;;;4.60;77.60;99837.83;107553;1282;1003086;-68
2023/01/31 07:29:13;;;;;;;47.90;25.70;;;;;;;4.61;77.75;99841.48;108378;1277;22019;-68
2023/01/31 07:31:39;;;;;;;52.40;29.80;;;;;;;4.63;77.84;99842.00;108314;1282;21992;-68
2023/01/31 07:34:04;;;;;;;47.00;25.90;;;;;;;4.67;78.30;99842.52;108435;1282;21996;-74
2023/01/31 07:36:31;;;;;;;50.80;25.80;;;;;;;4.74;78.94;99840.30;107513;1282;1002349;-75
2023/01/31 07:39:01;;;;;;;43.20;24.70;;;;;;;4.84;79.42;99839.27;108316;1282;21986;-67
2023/01/31 07:41:28;;;;;;;40.90;22.40;;;;;;;4.93;79.50;99838.25;108200;1282;22039;-73
2023/01/31 07:43:54;;;;;;;47.40;25.40;;;;;;;5.01;79.17;99837.75;108214;1282;21980;-68
2023/01/31 07:46:19;;;;;;;40.40;22.20;;;;;;;5.06;79.33;99838.98;107589;1279;1002572;-72
2023/01/31 07:48:46;;;;;;;44.20;23.30;;;;;;;5.09;79.39;99840.89;108439;1282;23650;-72
2023/01/31 07:51:11;;;;;;;43.50;22.30;;;;;;;5.15;79.01;99845.24;108384;1282;22023;-67
2023/01/31 07:53:41;;;;;;;40.50;22.60;;;;;;;5.22;79.24;99844.21;108389;1282;21978;-72
2023/01/31 07:56:09;;;;;;;;;;;;;;;5.27;78.89;99844.05;108356;1282;21963;-72
2023/01/31 07:58:36;;;;;;;38.50;21.20;;;;;;;5.32;78.30;99841.27;108318;1282;24331;-73
2023/01/31 08:03:48;;;;;;;45.90;24.80;;;;;;;5.38;77.63;99835.86;108320;1282;21989;-74
2023/01/31 11:43:27;;;;;;;46.10;25.90;;;;;;;3.86;100.00;99827.33;107309;1292;559025;-68
2023/01/31 11:46:00;;;;;;;49.70;28.90;;;;;;;6.36;100.00;99811.64;107592;1294;22003;-68
2023/01/31 11:48:32;;;;;;;48.60;29.00;;;;;;;6.97;99.95;99810.66;107387;1295;22007;-68
2023/01/31 11:51:00;;;;;;;41.60;26.00;;;;;;;7.24;98.63;99807.85;107486;1294;21999;-67
2023/01/31 11:53:36;;;;;;;41.70;24.90;;;;;;;7.29;96.85;99805.38;107697;1294;22042;-66
2023/01/31 11:56:18;;;;;;;35.00;21.50;;;;;;;7.39;96.39;99807.02;107651;1292;202505;-68
2023/01/31 11:58:44;;;;;;;36.20;22.20;;;;;;;7.53;94.87;99807.95;107781;1292;22014;-69
2023/01/31 12:01:11;;;;;;;35.60;21.70;;;;;;;7.58;93.79;99812.61;107850;1292;22053;-66
2023/01/31 12:03:36;;;;;;;30.40;20.40;;;;;;;7.71;92.81;99811.63;107711;1289;21994;-66
2023/01/31 12:06:07;;;;;;;31.20;20.80;;;;;;;7.80;91.55;99809.98;107776;1291;22006;-66
2023/01/31 12:08:40;;;;;;;34.00;20.00;;;;;;;7.87;90.96;99812.52;107817;1291;21991;-67
2023/01/31 12:11:19;;;;;;;50.70;27.30;;;;;;;7.93;90.67;99812.64;107705;1280;22001;-67
2023/01/31 12:13:46;;;;;;;38.00;21.30;;;;;;;7.98;90.08;99815.90;107915;1290;21998;-68
2023/01/31 12:16:12;;;;;;;33.50;20.50;;;;;;;8.02;89.37;99817.25;107864;1290;22125;-67
2023/01/31 12:18:38;;;;;;;33.00;20.70;;;;;;;8.06;89.11;99818.10;107653;1290;21993;-66
2023/01/31 12:21:26;;;;;;;32.20;20.80;;;;;;;8.10;88.80;99819.11;107834;1289;22003;-66
2023/01/31 12:24:00;;;;;;;30.80;19.30;;;;;;;8.09;88.40;99819.46;107777;1290;22003;-69
2023/01/31 12:26:46;;;;;;;32.10;20.10;;;;;;;8.10;88.77;99819.11;107852;1290;21995;-69
2023/01/31 12:29:26;;;;;;;36.10;21.00;;;;;;;8.13;88.64;99822.23;107924;1288;21999;-67
2023/01/31 12:31:58;;;;;;;;;;;;;;;8.15;88.72;99823.95;107967;1290;21995;-68
2023/01/31 12:34:26;;;;;;;31.90;21.00;;;;;;;8.18;88.59;99824.59;107871;1287;22008;-67
2023/01/31 12:36:56;;;;;;;33.20;19.80;;;;;;;8.20;88.32;99824.93;107869;1289;21996;-69
2023/01/31 12:39:34;;;;;;;30.90;20.50;;;;;;;8.22;88.69;99825.77;107817;1290;22002;-69
2023/01/31 12:42:15;;;;;;;36.20;22.30;;;;;;;8.26;88.86;99827.65;107748;1290;21999;-67
2023/01/31 12:44:47;;;;;;;32.20;20.30;;;;;;;8.30;88.15;99827.61;107774;1290;22001;-69
2023/01/31 12:47:31;;;;;;;31.90;19.60;;;;;;;8.30;87.41;99831.80;107812;1290;21996;-69
2023/01/31 12:50:16;;;;;;;32.10;19.90;;;;;;;8.32;87.17;99835.45;107704;1290;21997;-67
2023/01/31 12:53:10;;;;;;;34.00;21.30;;;;;;;8.33;86.63;99839.28;107715;1290;21995;-67
2023/01/31 12:55:49;;;;;;;28.70;18.40;;;;;;;8.36;86.31;99842.23;107687;1291;22036;-67
2023/01/31 12:58:32;;;;;;;28.90;18.50;;;;;;;8.41;86.03;99844.08;107705;1291;22004;-69
2023/01/31 13:01:08;;;;;;;35.90;21.20;;;;;;;8.40;84.73;99848.48;107730;1283;21996;-66
2023/01/31 13:03:41;;;;;;;43.80;26.80;;;;;;;8.40;84.66;99851.27;107745;1291;23087;-67
2023/01/31 13:06:14;;;;;;;48.40;26.20;;;;;;;8.38;84.75;99851.13;107786;1279;21995;-69
2023/01/31 13:09:02;;;;;;;96.10;38.00;;;;;;;8.28;84.55;99854.20;107846;1285;21998;-70
2023/01/31 13:11:54;;;;;;;99.80;43.00;;;;;;;8.32;84.93;99852.23;107781;1291;22001;-69
2023/01/31 13:14:21;;;;;;;56.80;31.70;;;;;;;8.33;85.14;99851.35;107637;1291;22205;-69
2023/01/31 13:16:50;;;;;;;49.10;26.20;;;;;;;8.33;84.72;99853.10;107747;1291;21999;-70
2023/01/31 13:19:22;;;;;;;36.60;21.00;;;;;;;8.35;84.64;99853.62;107750;1291;22001;-69
2023/01/31 13:21:51;;;;;;;32.70;19.90;;;;;;;8.34;84.83;99851.86;107712;1289;21999;-66
2023/01/31 13:24:19;;;;;;;34.00;20.10;;;;;;;8.37;85.08;99851.64;107801;1289;22052;-68
2023/01/31 13:26:51;;;;;;;34.40;20.00;;;;;;;8.42;85.00;99849.14;107797;1291;23067;-68
2023/01/31 13:29:36;;;;;;;35.30;18.90;;;;;;;8.35;83.36;99849.39;107814;1291;23808;-67
2023/01/31 13:32:37;;;;;;;35.80;21.40;;;;;;;8.33;84.16;99849.25;107738;1289;21995;-68
2023/01/31 13:35:13;;;;;;;38.70;22.90;;;;;;;8.38;84.09;99854.27;107949;1289;22000;-65
2023/01/31 13:37:39;;;;;;;34.50;21.50;;;;;;;8.42;83.30;99858.41;107903;1289;22677;-68
2023/01/31 13:40:24;;;;;;;36.30;20.80;;;;;;;8.42;83.26;99862.42;107759;1289;21991;-68
2023/01/31 13:42:52;;;;;;;32.80;19.50;;;;;;;8.43;83.23;99864.70;107043;1290;1002234;-68
2023/01/31 13:45:30;;;;;;;34.00;22.60;;;;;;;8.45;83.58;99866.95;107769;1290;21999;-69
2023/01/31 13:48:02;;;;;;;35.30;22.50;;;;;;;8.44;83.03;99870.44;107821;1290;22677;-65
2023/01/31 13:50:43;;;;;;;33.70;21.20;;;;;;;8.42;82.99;99873.61;107749;1290;21992;-65
2023/01/31 13:53:27;;;;;;;34.80;19.40;;;;;;;8.38;82.85;99875.07;107751;1290;22030;-65
2023/01/31 13:55:53;;;;;;;31.60;20.30;;;;;;;8.39;83.48;99873.66;107719;1290;21999;-65
2023/01/31 13:58:30;;;;;;;29.10;18.10;;;;;;;8.42;84.12;99875.20;107719;1291;21999;-67
2023/01/31 14:01:12;;;;;;;27.70;17.40;;;;;;;8.46;84.29;99874.11;107862;1291;22006;-66
2023/01/31 14:04:13;;;;;;;27.20;16.50;;;;;;;8.43;83.37;99871.51;107794;1292;22460;-69
2023/01/31 14:06:51;;;;;;;32.30;16.30;;;;;;;8.33;82.43;99876.70;107767;1284;22000;-69
2023/01/31 14:09:30;;;;;;;26.30;16.10;;;;;;;8.26;82.80;99879.05;107801;1292;22005;-66
2023/01/31 14:12:00;;;;;;;27.20;16.70;;;;;;;8.20;83.36;99877.54;107802;1292;22019;-69
2023/01/31 14:14:36;;;;;;;23.90;16.70;;;;;;;8.19;83.05;99879.29;107767;1292;22032;-66
2023/01/31 14:17:03;;;;;;;25.10;16.20;;;;;;;8.18;83.63;99879.83;107263;1292;1002342;-69
2023/01/31 14:19:30;;;;;;;38.00;22.80;;;;;;;8.23;83.44;99880.46;107993;1292;21999;-66
2023/01/31 14:22:01;;;;;;;30.40;19.20;;;;;;;8.26;84.21;99879.39;107839;1290;23065;-68
2023/01/31 14:24:51;;;;;;;30.30;19.60;;;;;;;8.31;84.12;99879.17;107953;1290;22041;-69
2023/01/31 14:27:33;;;;;;;29.20;17.30;;;;;;;8.33;83.46;99878.45;107749;1290;22004;-65
2023/01/31 14:30:05;;;;;;;32.80;19.90;;;;;;;8.31;83.03;99881.96;107824;1290;21998;-66
2023/01/31 14:32:35;;;;;;;28.40;16.20;;;;;;;8.29;82.67;99883.04;107789;1290;22001;-66
2023/01/31 14:35:43;;;;;;;108.20;52.80;;;;;;;8.24;82.02;99883.61;107727;1287;22008;-69
2023/01/31 14:38:12;;;;;;;33.10;19.70;;;;;;;8.25;82.83;99886.92;107772;1290;21993;-69
2023/01/31 14:41:00;;;;;;;26.80;17.20;;;;;;;8.24;82.60;99895.49;107792;1289;21999;-69
2023/01/31 14:43:32;;;;;;;25.90;16.40;;;;;;;8.23;82.44;99897.26;107910;1289;21997;-65
2023/01/31 14:46:22;;;;;;;25.00;15.10;;;;;;;8.23;82.35;99904.25;107865;1289;22012;-66
2023/01/31 14:49:06;;;;;;;31.30;17.90;;;;;;;8.24;82.66;99903.54;107853;1289;21988;-69
2023/01/31 14:51:47;;;;;;;30.90;19.30;;;;;;;8.24;82.39;99905.80;107928;1289;21990;-66
2023/01/31 14:54:22;;;;;;;24.70;16.00;;;;;;;8.21;82.18;99910.90;107895;1278;21996;-69
2023/01/31 14:57:20;;;;;;;23.90;14.80;;;;;;;8.20;82.08;99912.30;107937;1286;21992;-68
2023/01/31 14:59:57;;;;;;;24.10;15.50;;;;;;;8.18;81.68;99919.84;107916;1289;22001;-66
2023/01/31 15:02:33;;;;;;;24.60;15.00;;;;;;;8.10;80.85;99921.33;107956;1289;23666;-66
2023/01/31 15:05:08;;;;;;;32.20;18.90;;;;;;;7.99;80.55;99923.52;107914;1289;21987;-66
2023/01/31 15:07:35;;;;;;;47.10;27.90;;;;;;;7.96;81.35;99926.70;107901;1286;21992;-69
2023/01/31 15:10:02;;;;;;;41.80;23.10;;;;;;;7.94;81.47;99932.30;107890;1289;22006;-69
2023/01/31 15:12:51;;;;;;;37.40;19.10;;;;;;;7.93;81.33;99934.08;107822;1277;21983;-66
2023/01/31 15:15:41;;;;;;;37.80;21.00;;;;;;;7.91;81.13;99934.61;107867;1289;24424;-68
2023/01/31 15:18:20;;;;;;;49.20;27.10;;;;;;;7.90;80.98;99938.45;107849;1289;21995;-66
2023/01/31 15:20:50;;;;;;;39.80;22.80;;;;;;;7.89;80.72;99938.64;107959;1289;23779;-69
2023/01/31 15:23:26;;;;;;;38.30;20.70;;;;;;;7.88;80.21;99940.05;107901;1289;22083;-69
2023/01/31 15:25:52;;;;;;;48.00;26.30;;;;;;;7.87;80.06;99942.15;107959;1289;21996;-69
2023/01/31 15:28:20;;;;;;;49.50;25.70;;;;;;;7.86;80.01;99945.98;107857;1289;22002;-67
2023/01/31 15:30:46;;;;;;;33.60;19.10;;;;;;;7.83;79.82;99945.32;107841;1289;23112;-67
2023/01/31 15:33:28;;;;;;;28.60;18.10;;;;;;;7.80;79.66;99946.92;107825;1289;21992;-70
2023/01/31 15:36:24;;;;;;;27.00;16.40;;;;;;;7.78;79.53;99949.90;107934;1289;22335;-68
2023/01/31 15:39:24;;;;;;;22.00;12.20;;;;;;;7.78;79.81;99955.31;107927;1289;23851;-66
2023/01/31 15:41:51;;;;;;;23.10;14.60;;;;;;;7.80;79.47;99962.64;107724;1286;22185;-65
2023/01/31 15:44:23;;;;;;;22.00;14.50;;;;;;;7.80;79.79;99963.52;107760;1290;23778;-69
2023/01/31 15:46:50;;;;;;;27.20;17.20;;;;;;;7.80;79.79;99961.23;107889;1277;23080;-69
2023/01/31 15:49:24;;;;;;;22.50;13.80;;;;;;;7.77;79.03;99965.28;107884;1289;21999;-66
2023/01/31 15:52:33;;;;;;;20.40;12.70;;;;;;;7.75;78.74;99964.60;107870;1289;22109;-66
2023/01/31 15:55:01;;;;;;;23.90;15.10;;;;;;;7.72;78.60;99966.02;107341;1295;23063;-65
2023/01/31 15:57:40;;;;;;;21.30;13.70;;;;;;;7.71;78.66;99968.30;107340;1295;22011;-67
2023/01/31 16:00:07;;;;;;;21.70;11.90;;;;;;;7.72;78.95;99968.46;107746;1289;23367;-66
2023/01/31 16:02:36;;;;;;;18.70;12.30;;;;;;;7.71;79.15;99972.14;107776;1289;22744;-66
2023/01/31 16:05:07;;;;;;;19.70;12.50;;;;;;;7.72;79.02;99972.48;107919;1289;21994;-67
2023/01/31 16:07:34;;;;;;;39.20;28.20;;;;;;;7.72;79.15;99969.16;107915;1289;22758;-70
2023/01/31 16:10:00;;;;;;;21.20;13.80;;;;;;;7.76;79.70;99972.27;107883;1289;21989;-70
2023/01/31 16:12:27;;;;;;;18.70;13.10;;;;;;;7.79;79.22;99976.60;107955;1286;22030;-70
2023/01/31 16:15:01;;;;;;;22.80;14.40;;;;;;;7.79;79.12;99981.34;107949;1287;22002;-70
2023/01/31 16:17:27;;;;;;;21.30;13.20;;;;;;;7.77;78.76;99982.04;107823;1289;22050;-70
2023/01/31 16:19:53;;;;;;;22.90;13.30;;;;;;;7.76;78.58;99989.20;107745;1289;22000;-67
2023/01/31 16:22:26;;;;;;;16.40;11.60;;;;;;;7.73;78.28;99985.73;107861;1289;21996;-67
2023/01/31 16:24:59;;;;;;;20.10;12.00;;;;;;;7.69;77.81;99986.47;107889;1289;24322;-68
2023/01/31 16:27:26;;;;;;;22.00;13.10;;;;;;;7.64;77.75;99990.87;107939;1289;23035;-69
2023/01/31 16:29:58;;;;;;;18.80;11.60;;;;;;;7.61;77.58;99995.08;107905;1289;22013;-67
2023/01/31 16:32:36;;;;;;;19.70;12.90;;;;;;;7.52;76.36;99997.40;107948;1289;22761;-69
2023/01/31 16:35:07;;;;;;;18.70;11.60;;;;;;;7.47;77.05;99998.48;107922;1289;21990;-69
2023/01/31 16:37:36;;;;;;;19.90;11.80;;;;;;;7.46;77.63;100000.23;107859;1289;21974;-66
2023/01/31 16:40:17;;;;;;;19.00;11.60;;;;;;;7.44;77.16;99999.02;107952;1289;22961;-68
2023/01/31 16:42:44;;;;;;;17.90;10.80;;;;;;;7.41;77.12;100001.30;107928;1289;22008;-69
2023/01/31 16:45:28;;;;;;;19.50;11.80;;;;;;;7.36;77.10;99996.08;107947;1289;21994;-66
2023/01/31 16:47:55;;;;;;;17.10;11.00;;;;;;;7.36;77.38;99992.77;107886;1289;22008;-69
2023/01/31 16:50:22;;;;;;;16.00;10.80;;;;;;;7.37;77.74;99988.58;107767;1289;22075;-69
2023/01/31 16:52:50;;;;;;;16.20;10.80;;;;;;;7.39;78.35;99988.56;107879;1289;21998;-66
2023/01/31 16:55:20;;;;;;;17.00;10.90;;;;;;;7.43;78.51;99989.59;107747;1289;21997;-69
2023/01/31 16:57:48;;;;;;;18.50;10.80;;;;;;;7.47;78.78;99990.98;107879;1276;22132;-66
2023/01/31 17:00:23;;;;;;;18.20;11.30;;;;;;;7.50;78.55;99988.86;107904;1289;22083;-69
2023/01/31 17:02:52;;;;;;;20.40;11.40;;;;;;;7.49;78.44;99989.55;108022;1286;22458;-66
2023/01/31 17:05:40;;;;;;;20.70;11.50;;;;;;;7.48;78.15;99988.34;107846;1288;23070;-69
2023/01/31 19:50:14;;;;;;;33.30;18.80;;;;;;;2.73;100.00;100080.11;107996;1277;548029;-69
2023/01/31 19:52:42;;;;;;;29.10;18.70;;;;;;;5.72;100.00;100063.73;108271;1283;21986;-69
2023/01/31 19:55:08;;;;;;;24.00;16.30;;;;;;;6.16;100.00;100061.05;108291;1285;22000;-66
2023/01/31 19:57:37;;;;;;;21.60;14.70;;;;;;;6.40;99.63;100056.88;108115;1285;22112;-67
2023/01/31 20:00:03;;;;;;;22.90;15.80;;;;;;;6.59;98.18;100059.13;108095;1284;21981;-70
2023/01/31 20:02:31;;;;;;;24.10;14.60;;;;;;;6.73;96.76;100059.30;108039;1283;326903;-70
2023/01/31 20:04:57;;;;;;;22.20;14.80;;;;;;;6.83;95.91;100062.58;108268;1283;22038;-70
2023/01/31 20:07:23;;;;;;;22.50;12.80;;;;;;;6.87;95.24;100064.66;108287;1281;22026;-70
2023/01/31 20:09:49;;;;;;;20.60;12.80;;;;;;;6.93;94.54;100060.28;108314;1282;21982;-70
2023/01/31 20:12:15;;;;;;;18.70;12.50;;;;;;;7.00;93.45;100057.66;108310;1283;21984;-67
2023/01/31 20:14:41;;;;;;;17.20;11.60;;;;;;;7.10;91.93;100060.24;108271;1283;22024;-68
2023/01/31 20:17:07;;;;;;;20.30;12.90;;;;;;;7.12;91.27;100061.63;108383;1283;22018;-69
2023/01/31 20:19:35;;;;;;;18.30;11.90;;;;;;;7.21;90.64;100059.86;108341;1282;21986;-70
2023/01/31 20:22:01;;;;;;;18.30;12.50;;;;;;;7.23;90.05;100057.77;108316;1283;21982;-70
2023/01/31 20:24:26;;;;;;;19.60;12.00;;;;;;;7.25;89.46;100063.16;108303;1283;21994;-70
2023/01/31 20:26:52;;;;;;;16.30;10.80;;;;;;;7.28;89.26;100061.76;108313;1283;21991;-69
2023/01/31 20:29:18;;;;;;;19.40;11.80;;;;;;;7.32;89.00;100060.00;108352;1283;21980;-70
2023/01/31 20:31:44;;;;;;;17.60;11.50;;;;;;;7.34;88.47;100060.16;108297;1283;21984;-68
2023/01/31 20:34:09;;;;;;;19.20;12.40;;;;;;;7.34;87.82;100059.81;108298;1283;22157;-70
2023/01/31 20:36:37;;;;;;;17.60;13.10;;;;;;;7.34;87.36;100059.81;108334;1283;21984;-69
2023/01/31 20:39:03;;;;;;;18.90;12.10;;;;;;;7.33;86.76;100062.61;108284;1283;21961;-66
2023/01/31 20:41:28;;;;;;;18.10;11.80;;;;;;;7.32;86.32;100065.40;108336;1283;21985;-70
2023/01/31 20:43:56;;;;;;;22.40;12.50;;;;;;;7.31;85.99;100068.37;108305;1283;21992;-67
2023/01/31 20:46:23;;;;;;;18.40;12.50;;;;;;;7.29;85.95;100069.08;108324;1277;21980;-67
2023/01/31 20:48:49;;;;;;;20.00;12.70;;;;;;;7.31;85.86;100070.11;108301;1283;21979;-67
2023/01/31 20:51:15;;;;;;;20.60;12.50;;;;;;;7.32;85.74;100068.71;108300;1283;21989;-67
2023/01/31 20:53:41;;;;;;;20.20;12.90;;;;;;;7.32;85.95;100068.89;108290;1280;22011;-69
2023/01/31 20:56:11;;;;;;;19.40;12.00;;;;;;;7.30;86.00;100068.38;108267;1277;22014;-68
2023/01/31 20:58:38;;;;;;;20.60;12.00;;;;;;;7.31;85.77;100069.93;108291;1283;22459;-70
2023/01/31 21:01:04;;;;;;;18.60;12.40;;;;;;;7.32;85.82;100069.41;108326;1283;21971;-67
2023/01/31 21:03:30;;;;;;;17.70;12.00;;;;;;;7.32;85.47;100068.53;108325;1283;21980;-67
2023/01/31 21:05:58;;;;;;;22.50;11.90;;;;;;;7.28;85.50;100070.30;108294;1280;23531;-70
2023/01/31 21:08:25;;;;;;;18.80;10.90;;;;;;;7.25;85.52;100069.27;108338;1283;22037;-70
2023/01/31 21:10:52;;;;;;;17.20;11.60;;;;;;;7.22;85.73;100071.73;108321;1283;21985;-70
2023/01/31 21:13:18;;;;;;;18.50;12.00;;;;;;;7.22;85.89;100070.86;108359;1283;22013;-70
2023/01/31 21:15:52;;;;;;;21.80;12.30;;;;;;;7.21;86.07;100074.17;108314;1271;21994;-70
2023/01/31 21:18:19;;;;;;;16.00;11.00;;;;;;;7.20;86.17;100078.89;108300;1283;22013;-67
2023/01/31 21:20:45;;;;;;;17.80;12.20;;;;;;;7.21;86.49;100079.94;108296;1283;23643;-68
2023/01/31 21:23:11;;;;;;;21.10;12.60;;;;;;;7.21;86.57;100079.93;108364;1283;22737;-70
2023/01/31 21:25:37;;;;;;;16.60;11.10;;;;;;;7.20;86.47;100080.27;108313;1283;21981;-70
2023/01/31 21:28:05;;;;;;;20.80;12.80;;;;;;;7.22;86.30;100078.01;108310;1283;21983;-67
2023/01/31 21:30:30;;;;;;;17.70;12.40;;;;;;;7.23;86.26;100074.69;108114;1283;22004;-69
2023/01/31 21:32:56;;;;;;;21.50;11.60;;;;;;;7.23;86.21;100074.16;108285;1276;21985;-67
2023/01/31 21:35:22;;;;;;;18.20;11.70;;;;;;;7.23;86.18;100071.73;108274;1283;21981;-70
2023/01/31 21:37:48;;;;;;;20.30;13.40;;;;;;;7.24;86.11;100075.03;108110;1283;21976;-68
2023/01/31 21:40:14;;;;;;;17.90;12.10;;;;;;;7.28;85.33;100077.27;108284;1283;22959;-68
2023/01/31 21:42:40;;;;;;;18.20;11.80;;;;;;;7.29;85.12;100077.45;108368;1283;21984;-69
2023/01/31 21:45:07;;;;;;;21.30;12.60;;;;;;;7.29;85.07;100075.00;108302;1283;21989;-69
2023/01/31 21:48:27;;;;;;;19.30;11.90;;;;;;;7.28;85.10;100075.71;108283;1281;21988;-67
2023/01/31 21:50:19;;;;;;;20.50;12.30;;;;;;;7.23;85.37;100077.31;108311;1282;21986;-70
2023/01/31 21:52:45;;;;;;;19.70;13.60;;;;;;;7.21;85.39;100079.92;108291;1283;22065;-70
2023/01/31 21:55:11;;;;;;;18.90;12.80;;;;;;;7.26;85.30;100075.55;108299;1283;21980;-67
2023/01/31 21:57:36;;;;;;;21.00;13.00;;;;;;;7.32;84.95;100070.81;108288;1283;21972;-67
2023/01/31 22:00:03;;;;;;;17.10;12.40;;;;;;;7.37;84.65;100073.06;108288;1283;21981;-69
2023/01/31 22:02:29;;;;;;;20.00;13.60;;;;;;;7.39;84.59;100069.04;108299;1283;22048;-69
2023/01/31 22:04:55;;;;;;;20.40;13.30;;;;;;;7.37;84.38;100071.84;108297;1283;21996;-70
2023/01/31 22:07:21;;;;;;;19.40;12.80;;;;;;;7.38;84.19;100070.79;108336;1283;21990;-70
2023/01/31 22:09:47;;;;;;;19.20;12.00;;;;;;;7.40;84.24;100075.14;108252;1283;21983;-67
2023/01/31 22:12:13;;;;;;;17.70;12.00;;;;;;;7.40;84.12;100077.94;107532;1283;1003057;-67
2023/01/31 22:14:38;;;;;;;19.10;12.60;;;;;;;7.38;83.90;100075.67;108281;1282;21980;-68
2023/01/31 22:17:04;;;;;;;17.20;11.00;;;;;;;7.39;83.92;100077.41;108386;1283;22449;-67
2023/01/31 22:19:30;;;;;;;18.20;12.10;;;;;;;7.39;84.10;100075.84;108352;1283;22244;-67
2023/01/31 22:21:57;;;;;;;17.40;11.90;;;;;;;7.41;84.15;100077.41;108374;1283;22007;-67
2023/01/31 22:24:22;;;;;;;16.70;11.50;;;;;;;7.44;84.39;100077.23;108198;1283;21968;-70
2023/01/31 22:26:48;;;;;;;17.80;11.60;;;;;;;7.44;83.79;100077.92;108290;1282;22455;-67
2023/01/31 22:29:14;;;;;;;16.60;11.50;;;;;;;7.44;83.41;100080.89;108319;1284;21982;-69
2023/01/31 22:31:41;;;;;;;16.70;11.50;;;;;;;7.42;83.25;100079.33;108360;1283;21985;-69
2023/01/31 22:34:08;;;;;;;17.50;11.80;;;;;;;7.44;83.31;100079.50;108356;1280;21986;-68
2023/01/31 22:36:36;;;;;;;17.00;11.60;;;;;;;7.43;83.19;100074.27;107644;1284;1003088;-69
2023/01/31 22:39:02;;;;;;;17.60;11.20;;;;;;;7.39;83.43;100074.09;108365;1284;21999;-70
2023/01/31 22:41:28;;;;;;;15.90;10.80;;;;;;;7.42;83.54;100071.99;108272;1284;21986;-70
2023/01/31 22:43:54;;;;;;;18.40;12.20;;;;;;;7.46;83.24;100071.45;108358;1283;22023;-68
2023/01/31 22:46:27;;;;;;;16.90;11.50;;;;;;;7.44;82.75;100070.23;108367;1283;21981;-68
2023/01/31 22:48:53;;;;;;;18.70;11.90;;;;;;;7.39;83.30;100070.79;108418;1283;21949;-67
2023/01/31 22:51:21;;;;;;;16.30;11.30;;;;;;;7.38;83.46;100072.19;108403;1280;21985;-69
2023/01/31 22:53:47;;;;;;;14.90;10.40;;;;;;;7.38;83.52;100072.89;108368;1283;23076;-70
2023/01/31 22:56:18;;;;;;;16.00;11.40;;;;;;;7.39;83.64;100074.80;108347;1283;22222;-68